Fukushima, Japan
Current Conditions -  °F | °C
As of 3:00 PM on Thursday 23 Oct 2014 (Local Time) from RJCH Reporting Station
Few Clouds Few Clouds  
Wind Chill: 54°   Ceiling: Unl
Heat Index: 54°   Visibility: 6mi
Dew Point: 37°   Wind: 6mph
Humidity: 54%   Direction: 160°SSE
Pressure: 30.12"   Gusts: NA
Location:  41.48°N, 140.25°E
Report Text: RJCH 230600Z 16005KT 9999 FEW035 12/03 Q1020
Loading
Personal Weather Stations






























Interactive Weather Map
Tropical Storm Tracking
New forecast layout! Learn more

10-Day Weather Forecast

Advertisements
Track Severe Weather on mobile